sensor_id;sensor_type;location;lat;lon;timestamp;P1;durP1;ratioP1;P2;durP2;ratioP2
61905;SDS011;47863;55.766;37.672;2022-10-19T00:01:09;1.88;;;1.63;;
61905;SDS011;47863;55.766;37.672;2022-10-19T00:03:37;2.78;;;1.67;;
61905;SDS011;47863;55.766;37.672;2022-10-19T00:06:13;2.85;;;1.50;;
61905;SDS011;47863;55.766;37.672;2022-10-19T00:08:41;1.92;;;1.38;;
61905;SDS011;47863;55.766;37.672;2022-10-19T00:11:07;4.75;;;1.40;;
61905;SDS011;47863;55.766;37.672;2022-10-19T00:13:33;2.08;;;1.30;;
61905;SDS011;47863;55.766;37.672;2022-10-19T00:15:59;4.68;;;1.48;;
61905;SDS011;47863;55.766;37.672;2022-10-19T00:18:25;7.13;;;1.65;;
61905;SDS011;47863;55.766;37.672;2022-10-19T00:20:51;3.40;;;1.40;;
61905;SDS011;47863;55.766;37.672;2022-10-19T00:23:17;6.95;;;1.52;;
61905;SDS011;47863;55.766;37.672;2022-10-19T00:25:42;2.47;;;1.20;;
61905;SDS011;47863;55.766;37.672;2022-10-19T00:28:19;2.83;;;1.13;;
61905;SDS011;47863;55.766;37.672;2022-10-19T00:30:44;2.35;;;1.30;;
61905;SDS011;47863;55.766;37.672;2022-10-19T00:33:09;0.88;;;0.60;;
61905;SDS011;47863;55.766;37.672;2022-10-19T00:35:38;0.60;;;0.60;;
61905;SDS011;47863;55.766;37.672;2022-10-19T00:38:04;0.90;;;0.57;;
61905;SDS011;47863;55.766;37.672;2022-10-19T00:40:36;3.13;;;0.55;;
61905;SDS011;47863;55.766;37.672;2022-10-19T00:43:02;1.05;;;0.60;;
61905;SDS011;47863;55.766;37.672;2022-10-19T00:45:27;3.58;;;0.63;;
61905;SDS011;47863;55.766;37.672;2022-10-19T00:47:53;1.38;;;0.60;;
61905;SDS011;47863;55.766;37.672;2022-10-19T00:50:19;1.23;;;0.63;;
61905;SDS011;47863;55.766;37.672;2022-10-19T00:52:45;0.73;;;0.50;;
61905;SDS011;47863;55.766;37.672;2022-10-19T00:55:10;2.00;;;0.50;;
61905;SDS011;47863;55.766;37.672;2022-10-19T00:57:37;1.42;;;0.60;;
61905;SDS011;47863;55.766;37.672;2022-10-19T01:00:04;0.50;;;0.50;;
61905;SDS011;47863;55.766;37.672;2022-10-19T01:02:32;0.90;;;0.60;;
61905;SDS011;47863;55.766;37.672;2022-10-19T01:04:57;0.80;;;0.40;;
61905;SDS011;47863;55.766;37.672;2022-10-19T01:07:23;0.88;;;0.50;;
61905;SDS011;47863;55.766;37.672;2022-10-19T01:09:51;0.47;;;0.47;;
61905;SDS011;47863;55.766;37.672;2022-10-19T01:12:24;1.00;;;0.73;;
61905;SDS011;47863;55.766;37.672;2022-10-19T01:20:27;3.30;;;0.70;;
61905;SDS011;47863;55.766;37.672;2022-10-19T01:28:46;0.57;;;0.50;;
61905;SDS011;47863;55.766;37.672;2022-10-19T01:34:03;0.60;;;0.50;;
61905;SDS011;47863;55.766;37.672;2022-10-19T01:39:43;0.50;;;0.50;;
61905;SDS011;47863;55.766;37.672;2022-10-19T01:52:52;2.55;;;0.40;;
61905;SDS011;47863;55.766;37.672;2022-10-19T01:55:21;0.45;;;0.40;;
61905;SDS011;47863;55.766;37.672;2022-10-19T01:57:51;0.45;;;0.40;;
61905;SDS011;47863;55.766;37.672;2022-10-19T02:00:21;1.23;;;0.40;;
61905;SDS011;47863;55.766;37.672;2022-10-19T02:02:48;1.38;;;0.50;;
61905;SDS011;47863;55.766;37.672;2022-10-19T02:05:17;1.17;;;0.40;;
61905;SDS011;47863;55.766;37.672;2022-10-19T02:07:47;1.42;;;0.60;;
61905;SDS011;47863;55.766;37.672;2022-10-19T02:10:16;3.97;;;0.63;;
61905;SDS011;47863;55.766;37.672;2022-10-19T02:12:44;2.20;;;0.90;;
61905;SDS011;47863;55.766;37.672;2022-10-19T02:15:14;1.58;;;0.70;;
61905;SDS011;47863;55.766;37.672;2022-10-19T02:17:47;1.27;;;0.75;;
61905;SDS011;47863;55.766;37.672;2022-10-19T02:20:15;1.27;;;0.80;;
61905;SDS011;47863;55.766;37.672;2022-10-19T02:22:41;2.65;;;0.88;;
61905;SDS011;47863;55.766;37.672;2022-10-19T02:25:07;1.42;;;0.90;;
61905;SDS011;47863;55.766;37.672;2022-10-19T02:27:33;1.58;;;1.10;;
61905;SDS011;47863;55.766;37.672;2022-10-19T02:30:01;3.40;;;1.40;;
61905;SDS011;47863;55.766;37.672;2022-10-19T02:32:28;2.38;;;1.33;;
61905;SDS011;47863;55.766;37.672;2022-10-19T02:34:54;2.67;;;1.40;;
61905;SDS011;47863;55.766;37.672;2022-10-19T02:37:20;1.75;;;1.30;;
61905;SDS011;47863;55.766;37.672;2022-10-19T02:39:45;2.85;;;1.45;;
61905;SDS011;47863;55.766;37.672;2022-10-19T02:42:13;6.47;;;1.45;;
61905;SDS011;47863;55.766;37.672;2022-10-19T02:44:46;3.88;;;1.20;;
61905;SDS011;47863;55.766;37.672;2022-10-19T02:47:22;2.35;;;1.30;;
61905;SDS011;47863;55.766;37.672;2022-10-19T02:49:52;1.77;;;1.40;;
61905;SDS011;47863;55.766;37.672;2022-10-19T02:52:17;1.02;;;0.93;;
61905;SDS011;47863;55.766;37.672;2022-10-19T02:54:43;2.95;;;1.40;;
61905;SDS011;47863;55.766;37.672;2022-10-19T02:57:22;2.80;;;1.60;;
61905;SDS011;47863;55.766;37.672;2022-10-19T02:59:49;3.05;;;1.80;;
61905;SDS011;47863;55.766;37.672;2022-10-19T03:02:16;3.08;;;1.55;;
61905;SDS011;47863;55.766;37.672;2022-10-19T03:04:43;2.97;;;1.60;;
61905;SDS011;47863;55.766;37.672;2022-10-19T03:07:10;3.00;;;1.50;;
61905;SDS011;47863;55.766;37.672;2022-10-19T03:09:38;2.63;;;1.80;;
61905;SDS011;47863;55.766;37.672;2022-10-19T03:12:04;2.78;;;1.40;;
61905;SDS011;47863;55.766;37.672;2022-10-19T03:14:30;2.65;;;1.65;;
61905;SDS011;47863;55.766;37.672;2022-10-19T03:16:56;4.00;;;1.48;;
61905;SDS011;47863;55.766;37.672;2022-10-19T03:19:21;1.92;;;1.45;;
61905;SDS011;47863;55.766;37.672;2022-10-19T03:21:47;2.13;;;1.52;;
61905;SDS011;47863;55.766;37.672;2022-10-19T03:24:12;1.80;;;1.50;;
61905;SDS011;47863;55.766;37.672;2022-10-19T03:26:38;3.33;;;1.70;;
61905;SDS011;47863;55.766;37.672;2022-10-19T03:29:03;2.17;;;1.65;;
61905;SDS011;47863;55.766;37.672;2022-10-19T03:31:29;3.80;;;1.92;;
61905;SDS011;47863;55.766;37.672;2022-10-19T03:33:54;6.07;;;2.40;;
61905;SDS011;47863;55.766;37.672;2022-10-19T03:36:21;23.45;;;6.78;;
61905;SDS011;47863;55.766;37.672;2022-10-19T03:38:49;10.98;;;4.40;;
61905;SDS011;47863;55.766;37.672;2022-10-19T03:41:19;12.50;;;4.00;;
61905;SDS011;47863;55.766;37.672;2022-10-19T03:43:46;4.97;;;2.92;;
61905;SDS011;47863;55.766;37.672;2022-10-19T03:46:12;8.70;;;4.13;;
61905;SDS011;47863;55.766;37.672;2022-10-19T03:48:37;6.35;;;3.35;;
61905;SDS011;47863;55.766;37.672;2022-10-19T03:51:10;9.95;;;3.63;;
61905;SDS011;47863;55.766;37.672;2022-10-19T03:53:40;10.20;;;3.88;;
61905;SDS011;47863;55.766;37.672;2022-10-19T03:56:08;8.30;;;4.35;;
61905;SDS011;47863;55.766;37.672;2022-10-19T03:58:45;6.13;;;3.65;;
61905;SDS011;47863;55.766;37.672;2022-10-19T04:01:16;10.55;;;3.95;;
61905;SDS011;47863;55.766;37.672;2022-10-19T04:03:47;8.55;;;4.30;;
61905;SDS011;47863;55.766;37.672;2022-10-19T04:06:17;13.05;;;5.13;;
61905;SDS011;47863;55.766;37.672;2022-10-19T04:08:44;17.23;;;5.53;;
61905;SDS011;47863;55.766;37.672;2022-10-19T04:11:13;10.45;;;5.90;;
61905;SDS011;47863;55.766;37.672;2022-10-19T04:13:39;7.57;;;5.78;;
61905;SDS011;47863;55.766;37.672;2022-10-19T04:16:05;11.68;;;6.22;;
61905;SDS011;47863;55.766;37.672;2022-10-19T04:18:32;14.27;;;7.28;;
61905;SDS011;47863;55.766;37.672;2022-10-19T04:21:03;13.50;;;7.97;;
61905;SDS011;47863;55.766;37.672;2022-10-19T04:23:30;15.02;;;8.32;;
61905;SDS011;47863;55.766;37.672;2022-10-19T04:25:58;17.55;;;8.63;;
61905;SDS011;47863;55.766;37.672;2022-10-19T04:28:25;19.15;;;9.20;;
61905;SDS011;47863;55.766;37.672;2022-10-19T04:30:51;17.83;;;8.85;;
61905;SDS011;47863;55.766;37.672;2022-10-19T04:33:16;16.88;;;8.63;;
61905;SDS011;47863;55.766;37.672;2022-10-19T04:35:42;19.33;;;9.63;;
61905;SDS011;47863;55.766;37.672;2022-10-19T04:38:07;19.10;;;9.85;;
61905;SDS011;47863;55.766;37.672;2022-10-19T04:40:34;19.92;;;9.40;;
61905;SDS011;47863;55.766;37.672;2022-10-19T04:43:00;17.10;;;9.40;;
61905;SDS011;47863;55.766;37.672;2022-10-19T04:45:26;19.27;;;9.27;;
61905;SDS011;47863;55.766;37.672;2022-10-19T04:47:53;14.45;;;9.32;;
61905;SDS011;47863;55.766;37.672;2022-10-19T04:50:21;15.07;;;8.70;;
61905;SDS011;47863;55.766;37.672;2022-10-19T04:52:50;16.33;;;9.25;;
61905;SDS011;47863;55.766;37.672;2022-10-19T04:55:15;17.92;;;9.85;;
61905;SDS011;47863;55.766;37.672;2022-10-19T04:57:41;15.25;;;9.05;;
61905;SDS011;47863;55.766;37.672;2022-10-19T05:00:07;12.57;;;8.73;;
61905;SDS011;47863;55.766;37.672;2022-10-19T05:02:33;14.43;;;7.85;;
61905;SDS011;47863;55.766;37.672;2022-10-19T05:04:59;11.50;;;7.05;;
61905;SDS011;47863;55.766;37.672;2022-10-19T05:07:24;9.85;;;5.95;;
61905;SDS011;47863;55.766;37.672;2022-10-19T05:09:50;11.00;;;5.72;;
61905;SDS011;47863;55.766;37.672;2022-10-19T05:12:15;6.93;;;4.68;;
61905;SDS011;47863;55.766;37.672;2022-10-19T05:14:41;8.60;;;5.03;;
61905;SDS011;47863;55.766;37.672;2022-10-19T05:17:06;6.70;;;4.90;;
61905;SDS011;47863;55.766;37.672;2022-10-19T05:19:32;9.05;;;5.13;;
61905;SDS011;47863;55.766;37.672;2022-10-19T05:21:57;8.88;;;5.30;;
61905;SDS011;47863;55.766;37.672;2022-10-19T05:24:23;11.02;;;5.07;;
61905;SDS011;47863;55.766;37.672;2022-10-19T05:26:48;8.25;;;4.55;;
61905;SDS011;47863;55.766;37.672;2022-10-19T05:29:14;6.82;;;4.40;;
61905;SDS011;47863;55.766;37.672;2022-10-19T05:31:39;7.20;;;3.95;;
61905;SDS011;47863;55.766;37.672;2022-10-19T05:34:05;7.20;;;4.10;;
61905;SDS011;47863;55.766;37.672;2022-10-19T05:36:32;5.43;;;3.75;;
61905;SDS011;47863;55.766;37.672;2022-10-19T05:39:00;11.13;;;5.57;;
61905;SDS011;47863;55.766;37.672;2022-10-19T05:41:31;8.02;;;4.10;;
61905;SDS011;47863;55.766;37.672;2022-10-19T05:43:57;11.30;;;4.00;;
61905;SDS011;47863;55.766;37.672;2022-10-19T05:46:24;11.55;;;4.00;;
61905;SDS011;47863;55.766;37.672;2022-10-19T05:48:52;5.50;;;3.85;;
61905;SDS011;47863;55.766;37.672;2022-10-19T05:51:20;7.85;;;3.88;;
61905;SDS011;47863;55.766;37.672;2022-10-19T05:53:46;8.02;;;3.67;;
61905;SDS011;47863;55.766;37.672;2022-10-19T05:56:13;9.82;;;4.30;;
61905;SDS011;47863;55.766;37.672;2022-10-19T05:58:44;12.00;;;6.45;;
61905;SDS011;47863;55.766;37.672;2022-10-19T06:01:10;17.70;;;4.30;;
61905;SDS011;47863;55.766;37.672;2022-10-19T06:03:36;16.08;;;4.10;;
61905;SDS011;47863;55.766;37.672;2022-10-19T06:06:02;5.15;;;3.42;;
61905;SDS011;47863;55.766;37.672;2022-10-19T06:08:29;5.38;;;3.67;;
61905;SDS011;47863;55.766;37.672;2022-10-19T06:11:03;5.60;;;3.55;;
61905;SDS011;47863;55.766;37.672;2022-10-19T06:13:33;5.72;;;3.90;;
61905;SDS011;47863;55.766;37.672;2022-10-19T06:15:59;14.95;;;4.22;;
61905;SDS011;47863;55.766;37.672;2022-10-19T06:18:24;7.75;;;3.83;;
61905;SDS011;47863;55.766;37.672;2022-10-19T06:20:50;9.93;;;3.60;;
61905;SDS011;47863;55.766;37.672;2022-10-19T06:23:16;7.65;;;3.70;;
61905;SDS011;47863;55.766;37.672;2022-10-19T06:25:42;5.30;;;4.03;;
61905;SDS011;47863;55.766;37.672;2022-10-19T06:28:08;11.70;;;4.07;;
61905;SDS011;47863;55.766;37.672;2022-10-19T06:30:37;8.25;;;3.72;;
61905;SDS011;47863;55.766;37.672;2022-10-19T06:33:05;9.93;;;3.42;;
61905;SDS011;47863;55.766;37.672;2022-10-19T06:35:31;9.75;;;4.00;;
61905;SDS011;47863;55.766;37.672;2022-10-19T06:37:57;10.07;;;4.07;;
61905;SDS011;47863;55.766;37.672;2022-10-19T06:40:23;8.35;;;5.13;;
61905;SDS011;47863;55.766;37.672;2022-10-19T06:42:49;14.00;;;6.47;;
61905;SDS011;47863;55.766;37.672;2022-10-19T06:45:14;9.15;;;4.30;;
61905;SDS011;47863;55.766;37.672;2022-10-19T06:47:40;7.53;;;4.93;;
61905;SDS011;47863;55.766;37.672;2022-10-19T06:50:05;10.50;;;4.85;;
61905;SDS011;47863;55.766;37.672;2022-10-19T06:52:32;7.25;;;4.20;;
61905;SDS011;47863;55.766;37.672;2022-10-19T06:54:58;10.98;;;4.70;;
61905;SDS011;47863;55.766;37.672;2022-10-19T06:57:24;10.60;;;4.55;;
61905;SDS011;47863;55.766;37.672;2022-10-19T06:59:49;9.02;;;4.43;;
61905;SDS011;47863;55.766;37.672;2022-10-19T07:02:15;6.32;;;3.88;;
61905;SDS011;47863;55.766;37.672;2022-10-19T07:04:41;9.13;;;4.03;;
61905;SDS011;47863;55.766;37.672;2022-10-19T07:07:06;7.80;;;4.30;;
61905;SDS011;47863;55.766;37.672;2022-10-19T07:09:32;8.73;;;4.20;;
61905;SDS011;47863;55.766;37.672;2022-10-19T07:11:58;9.20;;;4.40;;
61905;SDS011;47863;55.766;37.672;2022-10-19T07:14:24;9.52;;;4.20;;
61905;SDS011;47863;55.766;37.672;2022-10-19T07:16:52;6.07;;;4.00;;
61905;SDS011;47863;55.766;37.672;2022-10-19T07:19:18;6.53;;;4.65;;
61905;SDS011;47863;55.766;37.672;2022-10-19T07:21:43;7.43;;;4.05;;
61905;SDS011;47863;55.766;37.672;2022-10-19T07:24:10;13.32;;;5.25;;
61905;SDS011;47863;55.766;37.672;2022-10-19T07:26:36;9.23;;;4.55;;
61905;SDS011;47863;55.766;37.672;2022-10-19T07:29:02;10.75;;;4.50;;
61905;SDS011;47863;55.766;37.672;2022-10-19T07:31:28;11.52;;;5.78;;
61905;SDS011;47863;55.766;37.672;2022-10-19T07:33:54;8.48;;;4.53;;
61905;SDS011;47863;55.766;37.672;2022-10-19T07:36:22;13.10;;;5.03;;
61905;SDS011;47863;55.766;37.672;2022-10-19T07:38:48;9.00;;;5.97;;
61905;SDS011;47863;55.766;37.672;2022-10-19T07:41:15;11.18;;;6.68;;
61905;SDS011;47863;55.766;37.672;2022-10-19T07:43:43;11.20;;;4.75;;
61905;SDS011;47863;55.766;37.672;2022-10-19T07:46:11;12.52;;;5.90;;
61905;SDS011;47863;55.766;37.672;2022-10-19T07:48:40;13.85;;;5.47;;
61905;SDS011;47863;55.766;37.672;2022-10-19T07:51:07;8.57;;;5.03;;
61905;SDS011;47863;55.766;37.672;2022-10-19T07:53:33;7.50;;;4.75;;
61905;SDS011;47863;55.766;37.672;2022-10-19T07:58:30;12.25;;;5.45;;
61905;SDS011;47863;55.766;37.672;2022-10-19T08:01:03;10.07;;;5.65;;
61905;SDS011;47863;55.766;37.672;2022-10-19T08:03:33;10.80;;;6.10;;
61905;SDS011;47863;55.766;37.672;2022-10-19T08:06:00;10.50;;;5.45;;
61905;SDS011;47863;55.766;37.672;2022-10-19T08:08:27;8.88;;;5.15;;
61905;SDS011;47863;55.766;37.672;2022-10-19T08:10:53;11.10;;;5.85;;
61905;SDS011;47863;55.766;37.672;2022-10-19T08:13:18;13.32;;;5.82;;
61905;SDS011;47863;55.766;37.672;2022-10-19T08:15:44;12.52;;;6.10;;
61905;SDS011;47863;55.766;37.672;2022-10-19T08:18:09;14.43;;;6.72;;
61905;SDS011;47863;55.766;37.672;2022-10-19T08:20:35;15.30;;;6.32;;
61905;SDS011;47863;55.766;37.672;2022-10-19T08:23:01;9.00;;;5.47;;
61905;SDS011;47863;55.766;37.672;2022-10-19T08:25:27;15.85;;;7.82;;
61905;SDS011;47863;55.766;37.672;2022-10-19T08:27:53;11.77;;;5.72;;
61905;SDS011;47863;55.766;37.672;2022-10-19T08:30:18;13.48;;;6.53;;
61905;SDS011;47863;55.766;37.672;2022-10-19T08:32:44;14.23;;;6.60;;
61905;SDS011;47863;55.766;37.672;2022-10-19T08:35:09;14.27;;;6.55;;
61905;SDS011;47863;55.766;37.672;2022-10-19T08:37:35;11.00;;;6.68;;
61905;SDS011;47863;55.766;37.672;2022-10-19T08:40:00;8.07;;;5.88;;
61905;SDS011;47863;55.766;37.672;2022-10-19T08:42:42;10.30;;;6.18;;
61905;SDS011;47863;55.766;37.672;2022-10-19T08:48:41;9.15;;;5.88;;
61905;SDS011;47863;55.766;37.672;2022-10-19T08:51:08;12.63;;;5.95;;
61905;SDS011;47863;55.766;37.672;2022-10-19T09:01:52;6.88;;;4.45;;
61905;SDS011;47863;55.766;37.672;2022-10-19T09:04:38;7.95;;;5.22;;
61905;SDS011;47863;55.766;37.672;2022-10-19T09:07:13;10.13;;;5.07;;
61905;SDS011;47863;55.766;37.672;2022-10-19T09:15:37;9.57;;;5.55;;
61905;SDS011;47863;55.766;37.672;2022-10-19T09:18:47;7.60;;;4.68;;
61905;SDS011;47863;55.766;37.672;2022-10-19T09:21:03;10.73;;;4.93;;
61905;SDS011;47863;55.766;37.672;2022-10-19T09:26:43;10.45;;;5.22;;
61905;SDS011;47863;55.766;37.672;2022-10-19T09:29:25;13.75;;;8.18;;
61905;SDS011;47863;55.766;37.672;2022-10-19T09:31:57;7.72;;;5.20;;
61905;SDS011;47863;55.766;37.672;2022-10-19T09:34:35;8.45;;;4.80;;
61905;SDS011;47863;55.766;37.672;2022-10-19T09:37:05;7.20;;;4.38;;
61905;SDS011;47863;55.766;37.672;2022-10-19T09:39:31;10.65;;;5.07;;
61905;SDS011;47863;55.766;37.672;2022-10-19T09:41:58;7.10;;;4.47;;
61905;SDS011;47863;55.766;37.672;2022-10-19T09:44:29;10.17;;;4.87;;
61905;SDS011;47863;55.766;37.672;2022-10-19T09:49:42;7.38;;;4.45;;
61905;SDS011;47863;55.766;37.672;2022-10-19T09:52:21;6.68;;;4.75;;
61905;SDS011;47863;55.766;37.672;2022-10-19T09:54:50;5.80;;;3.70;;
61905;SDS011;47863;55.766;37.672;2022-10-19T09:57:25;7.15;;;3.83;;
61905;SDS011;47863;55.766;37.672;2022-10-19T09:59:51;7.75;;;3.83;;
61905;SDS011;47863;55.766;37.672;2022-10-19T10:02:18;6.35;;;3.85;;
61905;SDS011;47863;55.766;37.672;2022-10-19T10:04:55;7.05;;;3.13;;
61905;SDS011;47863;55.766;37.672;2022-10-19T10:07:31;5.82;;;2.60;;
61905;SDS011;47863;55.766;37.672;2022-10-19T10:10:08;5.90;;;2.72;;
61905;SDS011;47863;55.766;37.672;2022-10-19T10:12:42;5.32;;;2.95;;
61905;SDS011;47863;55.766;37.672;2022-10-19T10:15:12;5.22;;;3.13;;
61905;SDS011;47863;55.766;37.672;2022-10-19T10:17:43;4.47;;;3.20;;
61905;SDS011;47863;55.766;37.672;2022-10-19T10:20:20;5.55;;;3.25;;
61905;SDS011;47863;55.766;37.672;2022-10-19T10:23:02;7.82;;;3.75;;
61905;SDS011;47863;55.766;37.672;2022-10-19T10:25:30;7.20;;;4.55;;
61905;SDS011;47863;55.766;37.672;2022-10-19T10:28:01;8.18;;;4.60;;
61905;SDS011;47863;55.766;37.672;2022-10-19T10:30:34;6.93;;;4.05;;
61905;SDS011;47863;55.766;37.672;2022-10-19T10:33:01;5.38;;;3.80;;
61905;SDS011;47863;55.766;37.672;2022-10-19T10:35:37;5.93;;;3.70;;
61905;SDS011;47863;55.766;37.672;2022-10-19T10:38:13;6.68;;;3.60;;
61905;SDS011;47863;55.766;37.672;2022-10-19T10:40:49;5.38;;;3.10;;
61905;SDS011;47863;55.766;37.672;2022-10-19T10:43:17;5.38;;;3.35;;
61905;SDS011;47863;55.766;37.672;2022-10-19T10:45:49;5.15;;;3.30;;
61905;SDS011;47863;55.766;37.672;2022-10-19T10:50:43;5.22;;;3.30;;
61905;SDS011;47863;55.766;37.672;2022-10-19T10:53:28;5.03;;;2.97;;
61905;SDS011;47863;55.766;37.672;2022-10-19T10:55:55;5.82;;;3.28;;
61905;SDS011;47863;55.766;37.672;2022-10-19T10:58:33;5.93;;;3.65;;
61905;SDS011;47863;55.766;37.672;2022-10-19T11:01:16;5.15;;;3.00;;
61905;SDS011;47863;55.766;37.672;2022-10-19T11:04:00;7.13;;;2.97;;
61905;SDS011;47863;55.766;37.672;2022-10-19T11:06:33;4.95;;;3.17;;
61905;SDS011;47863;55.766;37.672;2022-10-19T11:09:08;4.40;;;3.22;;
61905;SDS011;47863;55.766;37.672;2022-10-19T11:11:44;9.57;;;5.18;;
61905;SDS011;47863;55.766;37.672;2022-10-19T11:14:24;6.97;;;3.78;;
61905;SDS011;47863;55.766;37.672;2022-10-19T11:16:54;7.38;;;3.45;;
61905;SDS011;47863;55.766;37.672;2022-10-19T11:19:29;7.05;;;3.30;;
61905;SDS011;47863;55.766;37.672;2022-10-19T11:22:05;7.78;;;2.63;;
61905;SDS011;47863;55.766;37.672;2022-10-19T11:30:18;12.52;;;3.60;;
61905;SDS011;47863;55.766;37.672;2022-10-19T11:36:00;4.10;;;2.83;;
61905;SDS011;47863;55.766;37.672;2022-10-19T11:41:33;4.95;;;2.92;;
61905;SDS011;47863;55.766;37.672;2022-10-19T11:43:50;16.25;;;3.28;;
61905;SDS011;47863;55.766;37.672;2022-10-19T11:46:38;5.78;;;3.20;;
61905;SDS011;47863;55.766;37.672;2022-10-19T11:51:54;6.28;;;3.33;;
61905;SDS011;47863;55.766;37.672;2022-10-19T11:54:37;8.02;;;3.15;;
61905;SDS011;47863;55.766;37.672;2022-10-19T12:00:11;7.60;;;2.97;;
61905;SDS011;47863;55.766;37.672;2022-10-19T12:05:32;17.40;;;11.75;;
61905;SDS011;47863;55.766;37.672;2022-10-19T12:13:57;4.10;;;2.80;;
61905;SDS011;47863;55.766;37.672;2022-10-19T12:16:34;6.70;;;2.67;;
61905;SDS011;47863;55.766;37.672;2022-10-19T12:19:04;4.05;;;3.03;;
61905;SDS011;47863;55.766;37.672;2022-10-19T12:21:37;5.38;;;3.28;;
61905;SDS011;47863;55.766;37.672;2022-10-19T12:24:12;6.00;;;3.42;;
61905;SDS011;47863;55.766;37.672;2022-10-19T12:26:42;7.20;;;3.30;;
61905;SDS011;47863;55.766;37.672;2022-10-19T12:29:14;3.85;;;2.75;;
61905;SDS011;47863;55.766;37.672;2022-10-19T12:31:47;6.07;;;3.22;;
61905;SDS011;47863;55.766;37.672;2022-10-19T12:34:30;8.00;;;3.58;;
61905;SDS011;47863;55.766;37.672;2022-10-19T12:37:22;5.95;;;4.03;;
61905;SDS011;47863;55.766;37.672;2022-10-19T12:39:59;5.03;;;3.33;;
61905;SDS011;47863;55.766;37.672;2022-10-19T12:42:42;5.72;;;3.20;;
61905;SDS011;47863;55.766;37.672;2022-10-19T12:45:17;4.88;;;2.78;;
61905;SDS011;47863;55.766;37.672;2022-10-19T12:53:24;7.53;;;3.35;;
61905;SDS011;47863;55.766;37.672;2022-10-19T12:58:35;5.47;;;3.58;;
61905;SDS011;47863;55.766;37.672;2022-10-19T13:01:14;5.90;;;3.20;;
61905;SDS011;47863;55.766;37.672;2022-10-19T13:04:11;4.95;;;2.78;;
61905;SDS011;47863;55.766;37.672;2022-10-19T13:09:22;5.85;;;2.90;;
61905;SDS011;47863;55.766;37.672;2022-10-19T13:14:43;7.07;;;3.00;;
61905;SDS011;47863;55.766;37.672;2022-10-19T13:17:59;7.20;;;2.80;;
61905;SDS011;47863;55.766;37.672;2022-10-19T13:25:16;6.43;;;3.15;;
61905;SDS011;47863;55.766;37.672;2022-10-19T13:27:46;7.43;;;2.95;;
61905;SDS011;47863;55.766;37.672;2022-10-19T13:33:29;6.65;;;3.30;;
61905;SDS011;47863;55.766;37.672;2022-10-19T13:38:26;5.22;;;2.90;;
61905;SDS011;47863;55.766;37.672;2022-10-19T13:41:17;8.55;;;3.67;;
61905;SDS011;47863;55.766;37.672;2022-10-19T13:52:02;4.55;;;3.28;;
61905;SDS011;47863;55.766;37.672;2022-10-19T14:01:11;5.53;;;3.35;;
61905;SDS011;47863;55.766;37.672;2022-10-19T14:03:52;7.95;;;3.63;;
61905;SDS011;47863;55.766;37.672;2022-10-19T14:06:55;7.57;;;3.97;;
61905;SDS011;47863;55.766;37.672;2022-10-19T14:12:29;6.28;;;3.80;;
61905;SDS011;47863;55.766;37.672;2022-10-19T14:14:58;8.02;;;3.80;;
61905;SDS011;47863;55.766;37.672;2022-10-19T14:17:39;6.95;;;3.72;;
61905;SDS011;47863;55.766;37.672;2022-10-19T14:23:22;11.77;;;3.92;;
61905;SDS011;47863;55.766;37.672;2022-10-19T14:25:58;9.98;;;4.97;;
61905;SDS011;47863;55.766;37.672;2022-10-19T14:28:27;5.32;;;3.42;;
61905;SDS011;47863;55.766;37.672;2022-10-19T14:30:54;5.70;;;3.10;;
61905;SDS011;47863;55.766;37.672;2022-10-19T14:33:24;5.00;;;3.08;;
61905;SDS011;47863;55.766;37.672;2022-10-19T14:35:52;4.72;;;2.75;;
61905;SDS011;47863;55.766;37.672;2022-10-19T14:41:05;5.95;;;3.10;;
61905;SDS011;47863;55.766;37.672;2022-10-19T14:43:41;6.07;;;3.70;;
61905;SDS011;47863;55.766;37.672;2022-10-19T14:48:33;6.78;;;3.90;;
61905;SDS011;47863;55.766;37.672;2022-10-19T14:51:00;10.10;;;3.75;;
61905;SDS011;47863;55.766;37.672;2022-10-19T14:56:03;5.70;;;3.10;;
61905;SDS011;47863;55.766;37.672;2022-10-19T14:58:36;6.35;;;3.05;;
61905;SDS011;47863;55.766;37.672;2022-10-19T15:01:06;13.80;;;4.05;;
61905;SDS011;47863;55.766;37.672;2022-10-19T15:03:33;6.63;;;3.50;;
61905;SDS011;47863;55.766;37.672;2022-10-19T15:06:02;4.78;;;2.83;;
61905;SDS011;47863;55.766;37.672;2022-10-19T15:08:33;4.20;;;2.10;;
61905;SDS011;47863;55.766;37.672;2022-10-19T15:11:03;4.53;;;2.67;;
61905;SDS011;47863;55.766;37.672;2022-10-19T15:13:31;2.58;;;1.98;;
61905;SDS011;47863;55.766;37.672;2022-10-19T15:16:00;5.22;;;2.10;;
61905;SDS011;47863;55.766;37.672;2022-10-19T15:18:26;5.38;;;2.20;;
61905;SDS011;47863;55.766;37.672;2022-10-19T15:21:00;8.35;;;2.28;;
61905;SDS011;47863;55.766;37.672;2022-10-19T15:23:38;18.98;;;8.32;;
61905;SDS011;47863;55.766;37.672;2022-10-19T15:28:45;4.60;;;2.05;;
61905;SDS011;47863;55.766;37.672;2022-10-19T15:31:28;6.38;;;2.35;;
61905;SDS011;47863;55.766;37.672;2022-10-19T15:33:55;5.63;;;2.47;;
61905;SDS011;47863;55.766;37.672;2022-10-19T15:36:23;4.57;;;2.50;;
61905;SDS011;47863;55.766;37.672;2022-10-19T15:41:26;6.95;;;2.55;;
61905;SDS011;47863;55.766;37.672;2022-10-19T15:43:55;4.28;;;2.05;;
61905;SDS011;47863;55.766;37.672;2022-10-19T15:52:22;4.03;;;2.15;;
61905;SDS011;47863;55.766;37.672;2022-10-19T15:54:50;6.82;;;2.92;;
61905;SDS011;47863;55.766;37.672;2022-10-19T15:59:50;5.75;;;2.47;;
61905;SDS011;47863;55.766;37.672;2022-10-19T16:02:15;8.15;;;3.28;;
61905;SDS011;47863;55.766;37.672;2022-10-19T16:04:41;6.50;;;2.50;;
61905;SDS011;47863;55.766;37.672;2022-10-19T16:07:07;7.40;;;2.78;;
61905;SDS011;47863;55.766;37.672;2022-10-19T16:09:43;5.00;;;3.00;;
61905;SDS011;47863;55.766;37.672;2022-10-19T16:12:09;4.80;;;2.60;;
61905;SDS011;47863;55.766;37.672;2022-10-19T16:14:35;9.40;;;3.80;;
61905;SDS011;47863;55.766;37.672;2022-10-19T16:17:01;5.80;;;2.47;;
61905;SDS011;47863;55.766;37.672;2022-10-19T16:19:26;4.95;;;2.55;;
61905;SDS011;47863;55.766;37.672;2022-10-19T16:21:52;4.55;;;2.67;;
61905;SDS011;47863;55.766;37.672;2022-10-19T16:24:17;6.45;;;2.53;;
61905;SDS011;47863;55.766;37.672;2022-10-19T16:26:43;9.07;;;2.50;;
61905;SDS011;47863;55.766;37.672;2022-10-19T16:29:09;6.03;;;2.38;;
61905;SDS011;47863;55.766;37.672;2022-10-19T16:31:35;5.32;;;2.97;;
61905;SDS011;47863;55.766;37.672;2022-10-19T16:34:01;3.67;;;2.20;;
61905;SDS011;47863;55.766;37.672;2022-10-19T16:36:28;3.22;;;2.00;;
61905;SDS011;47863;55.766;37.672;2022-10-19T16:38:54;3.50;;;2.05;;
61905;SDS011;47863;55.766;37.672;2022-10-19T16:41:20;8.77;;;2.40;;
61905;SDS011;47863;55.766;37.672;2022-10-19T16:43:45;4.82;;;2.38;;
61905;SDS011;47863;55.766;37.672;2022-10-19T16:46:12;4.15;;;2.13;;
61905;SDS011;47863;55.766;37.672;2022-10-19T16:48:38;3.67;;;2.30;;
61905;SDS011;47863;55.766;37.672;2022-10-19T16:53:29;3.58;;;2.20;;
61905;SDS011;47863;55.766;37.672;2022-10-19T16:55:55;3.58;;;2.20;;
61905;SDS011;47863;55.766;37.672;2022-10-19T16:58:28;5.28;;;2.33;;
61905;SDS011;47863;55.766;37.672;2022-10-19T17:00:54;4.25;;;2.33;;
61905;SDS011;47863;55.766;37.672;2022-10-19T17:03:20;4.50;;;2.30;;
61905;SDS011;47863;55.766;37.672;2022-10-19T17:05:46;6.10;;;2.22;;
61905;SDS011;47863;55.766;37.672;2022-10-19T17:08:12;5.88;;;2.85;;
61905;SDS011;47863;55.766;37.672;2022-10-19T17:10:37;11.07;;;3.30;;
61905;SDS011;47863;55.766;37.672;2022-10-19T17:13:03;5.93;;;3.88;;
61905;SDS011;47863;55.766;37.672;2022-10-19T17:15:28;7.15;;;4.05;;